createdAt,value
2022-10-26T00:00:41.560Z,101546.34
2022-10-26T00:03:08.743Z,101544.72
2022-10-26T00:05:37.108Z,101536.75
2022-10-26T00:08:04.903Z,101540.78
2022-10-26T00:10:33.986Z,101545.84
2022-10-26T00:13:02.008Z,101542.56
2022-10-26T00:15:30.050Z,101545.06
2022-10-26T00:17:57.703Z,101546.66
2022-10-26T00:20:24.752Z,101541.47
2022-10-26T00:22:53.038Z,101539.94
2022-10-26T00:25:19.994Z,101547.66
2022-10-26T00:27:47.473Z,101544.75
2022-10-26T00:30:14.983Z,101548.44
2022-10-26T00:32:41.894Z,101539.44
2022-10-26T00:35:21.234Z,101549.06
2022-10-26T00:37:56.396Z,101544.34
2022-10-26T00:40:28.592Z,101551.84
2022-10-26T00:42:55.819Z,101549.19
2022-10-26T00:45:25.657Z,101547.56
2022-10-26T00:47:58.508Z,101552.88
2022-10-26T00:50:33.387Z,101552.88
2022-10-26T00:53:04.962Z,101550.47
2022-10-26T00:55:37.235Z,101551.34
2022-10-26T00:58:08.651Z,101549.31
2022-10-26T01:00:36.003Z,101550.94
2022-10-26T01:03:07.436Z,101547.50
2022-10-26T01:05:38.568Z,101544.38
2022-10-26T01:08:08.215Z,101546.41
2022-10-26T01:10:37.803Z,101546.41
2022-10-26T01:13:06.215Z,101541.72
2022-10-26T01:15:48.434Z,101544.00
2022-10-26T01:18:26.338Z,101540.16
2022-10-26T01:21:29.788Z,101545.25
2022-10-26T01:24:22.600Z,101549.38
2022-10-26T01:27:10.522Z,101542.84
2022-10-26T01:30:20.198Z,101544.63
2022-10-26T01:33:18.618Z,101534.34
2022-10-26T01:36:01.852Z,101530.38
2022-10-26T01:38:39.087Z,101533.41
2022-10-26T01:41:15.407Z,101524.81
2022-10-26T01:43:50.270Z,101527.06
2022-10-26T01:46:21.538Z,101526.69
2022-10-26T01:48:53.650Z,101523.41
2022-10-26T01:51:23.371Z,101513.38
2022-10-26T01:53:50.391Z,101516.41
2022-10-26T01:56:22.088Z,101517.59
2022-10-26T01:59:26.847Z,101524.69
2022-10-26T02:02:45.768Z,101514.28
2022-10-26T02:05:36.332Z,101512.25
2022-10-26T02:08:28.511Z,101511.41
2022-10-26T02:11:16.759Z,101510.22
2022-10-26T02:13:54.195Z,101508.63
2022-10-26T02:16:27.517Z,101507.69
2022-10-26T02:19:06.085Z,101504.03
2022-10-26T02:21:39.495Z,101499.59
2022-10-26T02:24:12.673Z,101503.13
2022-10-26T02:26:43.216Z,101495.38
2022-10-26T02:29:16.176Z,101491.72
2022-10-26T02:31:48.436Z,101490.47
2022-10-26T02:34:23.180Z,101481.00
2022-10-26T02:36:55.582Z,101485.44
2022-10-26T02:39:24.965Z,101482.56
2022-10-26T02:41:53.101Z,101489.88
2022-10-26T02:44:26.626Z,101478.38
2022-10-26T02:46:55.771Z,101473.47
2022-10-26T02:49:25.217Z,101477.75
2022-10-26T02:52:01.198Z,101471.44
2022-10-26T02:54:41.942Z,101466.13
2022-10-26T02:57:16.598Z,101463.06
2022-10-26T02:59:49.695Z,101460.03
2022-10-26T03:02:19.480Z,101462.94
2022-10-26T03:04:50.807Z,101458.88
2022-10-26T03:07:22.238Z,101456.47
2022-10-26T03:09:49.219Z,101459.94
2022-10-26T03:12:16.250Z,101450.28
2022-10-26T03:14:43.241Z,101456.38
2022-10-26T03:17:10.303Z,101445.31
2022-10-26T03:19:37.264Z,101446.97
2022-10-26T03:22:05.524Z,101451.69
2022-10-26T03:24:32.441Z,101450.69
2022-10-26T03:27:02.063Z,101441.31
2022-10-26T03:29:29.753Z,101440.94
2022-10-26T03:31:56.755Z,101445.22
2022-10-26T03:34:23.758Z,101453.38
2022-10-26T03:36:50.699Z,101444.97
2022-10-26T03:39:18.968Z,101451.50
2022-10-26T03:41:46.047Z,101449.03
2022-10-26T03:44:13.075Z,101446.78
2022-10-26T03:46:40.071Z,101452.34
2022-10-26T03:49:07.046Z,101451.56
2022-10-26T03:51:34.018Z,101447.88
2022-10-26T03:54:00.914Z,101450.28
2022-10-26T03:56:29.146Z,101440.81
2022-10-26T03:58:56.335Z,101446.50
2022-10-26T04:01:23.949Z,101446.50
2022-10-26T04:03:51.011Z,101452.44
2022-10-26T04:06:18.078Z,101451.81
2022-10-26T04:08:45.123Z,101447.72
2022-10-26T04:11:12.299Z,101448.53
2022-10-26T04:13:40.561Z,101447.97
2022-10-26T04:16:08.001Z,101456.75
2022-10-26T04:18:34.990Z,101457.97
2022-10-26T04:21:02.227Z,101468.97
2022-10-26T04:23:29.173Z,101464.84
2022-10-26T04:25:56.097Z,101463.03
2022-10-26T04:28:23.114Z,101464.47
2022-10-26T04:30:51.388Z,101463.06
2022-10-26T04:33:18.272Z,101455.75
2022-10-26T04:35:46.180Z,101460.41
2022-10-26T04:38:13.134Z,101460.41
2022-10-26T04:40:40.098Z,101455.09
2022-10-26T04:43:07.089Z,101456.75
2022-10-26T04:45:34.412Z,101461.06
2022-10-26T04:48:09.983Z,101461.69
2022-10-26T04:50:38.068Z,101471.13
2022-10-26T04:53:06.210Z,101465.22
2022-10-26T04:55:33.449Z,101462.56
2022-10-26T04:58:01.619Z,101455.19
2022-10-26T05:00:30.913Z,101456.13
2022-10-26T05:03:00.037Z,101455.03
2022-10-26T05:05:29.122Z,101454.53
2022-10-26T05:07:57.163Z,101454.69
2022-10-26T05:10:25.101Z,101456.88
2022-10-26T05:12:52.713Z,101457.06
2022-10-26T05:15:19.787Z,101458.06
2022-10-26T05:17:47.186Z,101450.13
2022-10-26T05:20:14.628Z,101456.44
2022-10-26T05:22:43.183Z,101447.84
2022-10-26T05:25:10.187Z,101451.50
2022-10-26T05:27:37.096Z,101445.19
2022-10-26T05:30:04.622Z,101435.59
2022-10-26T05:32:31.570Z,101439.88
2022-10-26T05:34:58.529Z,101442.34
2022-10-26T05:37:28.995Z,101440.53
2022-10-26T05:39:57.286Z,101438.50
2022-10-26T05:42:25.374Z,101441.16
2022-10-26T05:44:52.330Z,101440.53
2022-10-26T05:47:19.268Z,101436.22
2022-10-26T05:49:46.377Z,101438.25
2022-10-26T05:52:13.329Z,101438.88
2022-10-26T05:54:40.384Z,101432.72
2022-10-26T05:57:12.101Z,101436.84
2022-10-26T05:59:40.018Z,101439.50
2022-10-26T06:02:19.018Z,101440.06
2022-10-26T06:04:48.302Z,101442.94
2022-10-26T06:07:18.070Z,101448.22
2022-10-26T06:09:47.146Z,101459.22
2022-10-26T06:12:19.324Z,101463.28
2022-10-26T06:14:47.928Z,101468.97
2022-10-26T06:17:40.176Z,101466.03
2022-10-26T06:20:28.924Z,101469.31
2022-10-26T06:23:17.361Z,101464.66
2022-10-26T06:25:55.251Z,101457.34
2022-10-26T06:28:40.339Z,101458.72
2022-10-26T06:31:07.927Z,101456.31
2022-10-26T06:33:34.972Z,101460.63
2022-10-26T06:36:19.733Z,101458.97
2022-10-26T06:38:52.576Z,101463.28
2022-10-26T06:41:22.071Z,101470.22
2022-10-26T06:43:52.903Z,101479.00
2022-10-26T06:46:37.357Z,101472.25
2022-10-26T06:49:18.788Z,101476.53
2022-10-26T06:51:55.326Z,101484.88
2022-10-26T06:54:39.222Z,101488.53
2022-10-26T06:57:10.813Z,101489.94
2022-10-26T06:59:45.524Z,101493.97
2022-10-26T07:02:14.674Z,101485.75
2022-10-26T07:04:43.140Z,101485.13
2022-10-26T07:07:12.479Z,101485.56
2022-10-26T07:09:39.711Z,101494.34
2022-10-26T07:12:07.206Z,101496.06
2022-10-26T07:14:34.368Z,101498.78
2022-10-26T07:17:03.028Z,101496.00
2022-10-26T07:19:30.079Z,101504.84
2022-10-26T07:22:01.383Z,101493.03
2022-10-26T07:24:28.509Z,101499.81
2022-10-26T07:26:57.112Z,101497.78
2022-10-26T07:29:28.811Z,101493.72
2022-10-26T07:31:55.950Z,101483.16
2022-10-26T07:34:24.637Z,101494.84
2022-10-26T07:36:53.124Z,101495.47
2022-10-26T07:39:20.296Z,101497.56
2022-10-26T07:41:47.284Z,101492.69
2022-10-26T07:44:14.313Z,101495.97
2022-10-26T07:46:41.400Z,101498.88
2022-10-26T07:49:08.461Z,101494.41
2022-10-26T07:51:37.063Z,101487.47
2022-10-26T07:54:04.354Z,101478.75
2022-10-26T07:56:31.645Z,101484.09
2022-10-26T07:58:58.842Z,101481.06
2022-10-26T08:01:26.345Z,101486.78
2022-10-26T08:03:54.559Z,101484.03
2022-10-26T08:06:22.512Z,101489.16
2022-10-26T08:08:51.886Z,101489.81
2022-10-26T08:11:19.563Z,101488.41
2022-10-26T08:13:46.773Z,101489.66
2022-10-26T08:16:14.169Z,101489.06
2022-10-26T08:18:41.256Z,101491.13
2022-10-26T08:21:13.718Z,101489.50
2022-10-26T08:23:45.297Z,101480.53
2022-10-26T08:26:13.595Z,101482.41
2022-10-26T08:28:40.795Z,101486.78
2022-10-26T08:31:07.870Z,101486.19
2022-10-26T08:33:34.969Z,101485.41
2022-10-26T08:36:05.218Z,101483.59
2022-10-26T08:38:33.805Z,101486.47
2022-10-26T08:41:08.989Z,101490.78
2022-10-26T08:43:46.026Z,101485.28
2022-10-26T08:46:18.634Z,101479.63
2022-10-26T08:48:52.668Z,101477.16
2022-10-26T08:51:25.211Z,101473.03
2022-10-26T08:53:59.597Z,101469.53
2022-10-26T08:56:33.831Z,101465.81
2022-10-26T08:59:13.510Z,101468.84
2022-10-26T09:01:40.597Z,101463.91
2022-10-26T09:04:13.341Z,101471.09
2022-10-26T09:06:55.078Z,101475.44
2022-10-26T09:09:36.343Z,101463.97
2022-10-26T09:12:14.557Z,101472.16
2022-10-26T09:15:00.598Z,101469.88
2022-10-26T09:17:44.123Z,101468.19
2022-10-26T09:20:44.339Z,101469.13
2022-10-26T09:23:29.866Z,101472.75
2022-10-26T09:26:00.447Z,101476.91
2022-10-26T09:28:34.597Z,101470.75
2022-10-26T09:31:05.324Z,101474.88
2022-10-26T09:33:39.417Z,101461.59
2022-10-26T09:36:13.218Z,101463.91
2022-10-26T09:38:50.281Z,101467.50
2022-10-26T09:41:29.607Z,101459.00
2022-10-26T09:44:12.482Z,101461.00
2022-10-26T09:46:53.216Z,101473.13
2022-10-26T09:49:30.232Z,101470.91
2022-10-26T09:51:57.407Z,101460.66
2022-10-26T09:54:24.627Z,101454.72
2022-10-26T09:56:59.452Z,101457.50
2022-10-26T09:59:26.645Z,101463.00
2022-10-26T10:01:55.146Z,101462.75
2022-10-26T10:04:23.293Z,101465.78
2022-10-26T10:06:52.766Z,101474.75
2022-10-26T10:09:22.327Z,101463.00
2022-10-26T10:11:57.282Z,101468.34
2022-10-26T10:14:27.180Z,101466.81
2022-10-26T10:16:58.836Z,101466.00
2022-10-26T10:19:28.813Z,101475.53
2022-10-26T10:21:59.107Z,101475.63
2022-10-26T10:24:29.379Z,101478.88
2022-10-26T10:27:00.384Z,101479.09
2022-10-26T10:29:28.900Z,101480.28
2022-10-26T10:31:59.573Z,101478.78
2022-10-26T10:34:27.572Z,101486.44
2022-10-26T10:36:55.342Z,101489.59
2022-10-26T10:39:39.950Z,101487.25
2022-10-26T10:42:20.532Z,101497.63
2022-10-26T10:44:52.868Z,101489.13
2022-10-26T10:47:27.432Z,101488.09
2022-10-26T10:49:58.654Z,101487.59
2022-10-26T10:52:29.474Z,101487.00
2022-10-26T10:55:15.944Z,101497.50
2022-10-26T10:58:08.162Z,101490.50
2022-10-26T11:00:38.007Z,101501.00
2022-10-26T11:03:41.521Z,101499.81
2022-10-26T11:06:17.083Z,101501.66
2022-10-26T11:08:50.790Z,101501.78
2022-10-26T11:11:23.071Z,101503.31
2022-10-26T11:13:59.601Z,101511.34
2022-10-26T11:16:33.407Z,101510.19
2022-10-26T11:19:15.534Z,101512.28
2022-10-26T11:21:49.033Z,101507.25
2022-10-26T11:24:24.303Z,101514.47
2022-10-26T11:26:57.741Z,101509.13
2022-10-26T11:29:40.360Z,101518.81
2022-10-26T11:32:19.623Z,101519.97
2022-10-26T11:34:55.541Z,101512.06
2022-10-26T11:37:30.522Z,101515.13
2022-10-26T11:40:19.264Z,101511.47
2022-10-26T11:42:52.549Z,101505.31
2022-10-26T11:45:27.048Z,101512.66
2022-10-26T11:48:02.386Z,101510.25
2022-10-26T11:50:36.434Z,101504.44
2022-10-26T11:53:12.422Z,101496.56
2022-10-26T11:55:41.346Z,101493.53
2022-10-26T11:58:11.700Z,101485.34
2022-10-26T12:00:49.209Z,101497.34
2022-10-26T12:03:25.360Z,101504.25
2022-10-26T12:05:54.113Z,101501.81
2022-10-26T12:08:27.716Z,101509.75
2022-10-26T12:11:38.309Z,101510.81
2022-10-26T12:14:17.873Z,101513.75
2022-10-26T12:16:56.456Z,101517.59
2022-10-26T12:19:32.952Z,101525.91
2022-10-26T12:22:02.429Z,101519.22
2022-10-26T12:24:35.333Z,101522.34
2022-10-26T12:27:04.489Z,101515.41
2022-10-26T12:29:39.514Z,101509.34
2022-10-26T12:32:51.478Z,101506.75
2022-10-26T12:35:41.577Z,101507.00
2022-10-26T12:38:58.484Z,101508.31
2022-10-26T12:41:26.399Z,101505.22
2022-10-26T12:44:30.495Z,101505.03
2022-10-26T12:46:57.594Z,101502.31
2022-10-26T12:50:03.330Z,101505.31
2022-10-26T12:52:51.624Z,101505.78
2022-10-26T12:56:02.110Z,101515.25
2022-10-26T12:59:05.009Z,101510.13
2022-10-26T13:02:34.820Z,101499.03
2022-10-26T13:06:04.313Z,101502.31
2022-10-26T13:08:42.271Z,101512.22
2022-10-26T13:11:20.152Z,101507.28
2022-10-26T13:13:54.935Z,101499.63
2022-10-26T13:16:26.182Z,101502.31
2022-10-26T13:18:53.499Z,101506.19
2022-10-26T13:21:23.875Z,101505.03
2022-10-26T13:24:05.142Z,101515.69
2022-10-26T13:27:24.608Z,101519.00
2022-10-26T13:30:45.613Z,101513.25
2022-10-26T13:33:23.264Z,101521.78
2022-10-26T13:35:56.500Z,101515.38
2022-10-26T13:38:30.854Z,101517.72
2022-10-26T13:41:13.968Z,101518.28
2022-10-26T13:43:44.074Z,101517.22
2022-10-26T13:46:36.516Z,101514.44
2022-10-26T13:49:23.329Z,101510.69
2022-10-26T13:51:52.995Z,101517.00
2022-10-26T13:54:32.864Z,101529.06
2022-10-26T13:57:13.425Z,101530.34
2022-10-26T13:59:45.007Z,101526.97
2022-10-26T14:02:26.289Z,101531.75
2022-10-26T14:05:04.602Z,101535.84
2022-10-26T14:07:37.618Z,101539.59
2022-10-26T14:10:06.018Z,101533.50
2022-10-26T14:12:34.020Z,101537.84
2022-10-26T14:15:08.305Z,101539.91
2022-10-26T14:17:35.507Z,101538.06
2022-10-26T14:20:04.682Z,101544.72
2022-10-26T14:22:31.825Z,101544.16
2022-10-26T14:25:00.923Z,101551.47
2022-10-26T14:27:33.363Z,101553.97
2022-10-26T14:30:21.682Z,101556.84
2022-10-26T14:32:49.989Z,101564.34
2022-10-26T14:35:18.753Z,101558.16
2022-10-26T14:37:52.725Z,101563.53
2022-10-26T14:40:24.754Z,101566.69
2022-10-26T14:42:56.763Z,101564.50
2022-10-26T14:45:47.557Z,101562.25
2022-10-26T14:51:28.989Z,101558.31
2022-10-26T14:54:00.928Z,101549.44
2022-10-26T14:56:38.435Z,101548.16
2022-10-26T14:59:12.496Z,101553.53
2022-10-26T15:01:53.387Z,101554.34
2022-10-26T15:04:36.490Z,101551.66
2022-10-26T15:07:17.808Z,101551.88
2022-10-26T15:09:46.802Z,101561.56
2022-10-26T15:12:29.498Z,101562.28
2022-10-26T15:15:06.325Z,101563.91
2022-10-26T15:17:41.222Z,101566.84
2022-10-26T15:20:18.685Z,101566.72
2022-10-26T15:22:52.836Z,101569.91
2022-10-26T15:25:23.587Z,101573.63
2022-10-26T15:27:51.680Z,101571.19
2022-10-26T15:30:24.555Z,101572.47
2022-10-26T15:32:53.944Z,101585.28
2022-10-26T15:35:29.934Z,101576.53
2022-10-26T15:37:59.080Z,101577.03
2022-10-26T15:40:28.959Z,101584.72
2022-10-26T15:43:00.633Z,101581.91
2022-10-26T15:45:31.625Z,101589.84
2022-10-26T15:48:15.478Z,101601.03
2022-10-26T15:50:43.747Z,101603.81
2022-10-26T15:53:23.850Z,101611.16
2022-10-26T15:55:55.218Z,101613.25
2022-10-26T15:58:23.294Z,101616.63
2022-10-26T16:00:50.345Z,101610.91
2022-10-26T16:03:20.781Z,101623.75
2022-10-26T16:05:54.814Z,101617.19
2022-10-26T16:08:21.943Z,101622.41
2022-10-26T16:10:50.947Z,101621.84
2022-10-26T16:13:18.003Z,101619.03
2022-10-26T16:15:45.625Z,101621.56
2022-10-26T16:18:12.871Z,101619.56
2022-10-26T16:20:40.984Z,101627.88
2022-10-26T16:23:09.318Z,101636.16
2022-10-26T16:25:43.338Z,101637.41
2022-10-26T16:28:12.592Z,101646.72
2022-10-26T16:33:07.752Z,101650.69
2022-10-26T16:35:35.041Z,101650.69
2022-10-26T16:38:02.256Z,101656.50
2022-10-26T16:40:30.597Z,101661.84
2022-10-26T16:42:57.632Z,101655.31
2022-10-26T16:45:24.576Z,101662.16
2022-10-26T16:47:51.791Z,101674.09
2022-10-26T16:50:21.087Z,101672.72
2022-10-26T16:52:48.131Z,101678.28
2022-10-26T16:55:15.486Z,101675.84
2022-10-26T16:57:43.841Z,101675.63
2022-10-26T17:00:11.629Z,101683.91
2022-10-26T17:02:39.691Z,101686.56
2022-10-26T17:05:08.357Z,101698.31
2022-10-26T17:07:35.826Z,101696.72
2022-10-26T17:10:04.042Z,101697.16
2022-10-26T17:12:31.537Z,101703.78
2022-10-26T17:15:01.372Z,101705.03
2022-10-26T17:17:28.413Z,101712.50
2022-10-26T17:19:55.504Z,101711.31
2022-10-26T17:22:22.559Z,101727.00
2022-10-26T17:24:49.497Z,101732.00
2022-10-26T17:27:17.336Z,101736.13
2022-10-26T17:29:44.287Z,101740.31
2022-10-26T17:32:13.911Z,101739.91
2022-10-26T17:34:40.847Z,101745.28
2022-10-26T17:37:07.985Z,101746.56
2022-10-26T17:39:34.958Z,101754.81
2022-10-26T17:42:01.978Z,101752.34
2022-10-26T17:44:29.006Z,101759.78
2022-10-26T17:46:55.976Z,101769.88
2022-10-26T17:49:26.858Z,101778.75
2022-10-26T17:51:56.292Z,101776.31
2022-10-26T17:54:23.283Z,101787.00
2022-10-26T17:56:50.447Z,101781.66
2022-10-26T17:59:19.035Z,101790.72
2022-10-26T18:01:46.475Z,101799.81
2022-10-26T18:04:13.577Z,101800.00
2022-10-26T18:06:42.269Z,101799.22
2022-10-26T18:09:10.051Z,101809.94
2022-10-26T18:11:37.133Z,101813.88
2022-10-26T18:14:04.143Z,101811.38
2022-10-26T18:16:31.414Z,101817.78
2022-10-26T18:19:04.194Z,101818.81
2022-10-26T18:21:34.811Z,101825.84
2022-10-26T18:24:04.440Z,101833.88
2022-10-26T18:26:32.280Z,101837.56
2022-10-26T18:29:02.055Z,101839.41
2022-10-26T18:31:32.075Z,101845.84
2022-10-26T18:34:01.807Z,101839.06
2022-10-26T18:36:30.068Z,101847.28
2022-10-26T18:38:57.344Z,101850.59
2022-10-26T18:41:26.924Z,101852.69
2022-10-26T18:43:59.553Z,101851.25
2022-10-26T18:46:29.911Z,101857.66
2022-10-26T18:48:59.100Z,101855.38
2022-10-26T18:51:30.488Z,101855.63
2022-10-26T18:53:58.902Z,101864.06
2022-10-26T18:56:27.838Z,101868.00
2022-10-26T18:58:58.664Z,101863.88
2022-10-26T19:01:28.574Z,101869.66
2022-10-26T19:03:58.583Z,101875.47
2022-10-26T19:06:28.918Z,101866.81
2022-10-26T19:08:57.327Z,101869.94
2022-10-26T19:11:28.825Z,101869.31
2022-10-26T19:13:58.104Z,101870.34
2022-10-26T19:19:16.597Z,101877.81
2022-10-26T19:21:44.916Z,101885.44
2022-10-26T19:24:14.784Z,101880.94
2022-10-26T19:26:44.388Z,101891.66
2022-10-26T19:29:17.248Z,101892.28
2022-10-26T19:31:47.518Z,101897.44
2022-10-26T19:34:17.166Z,101899.91
2022-10-26T19:36:46.139Z,101902.44
2022-10-26T19:39:15.019Z,101903.25
2022-10-26T19:41:46.004Z,101910.91
2022-10-26T19:44:14.580Z,101917.25
2022-10-26T19:46:44.044Z,101912.13
2022-10-26T19:49:12.627Z,101914.16
2022-10-26T19:51:39.703Z,101915.41
2022-10-26T19:54:07.366Z,101913.97
2022-10-26T19:56:36.678Z,101917.88
2022-10-26T19:59:07.935Z,101918.06
2022-10-26T20:01:35.534Z,101921.78
2022-10-26T20:04:03.011Z,101923.84
2022-10-26T20:06:30.807Z,101925.69
2022-10-26T20:08:59.793Z,101936.56
2022-10-26T20:11:29.153Z,101929.00
2022-10-26T20:13:56.564Z,101942.97
2022-10-26T20:16:25.170Z,101937.22
2022-10-26T20:18:52.187Z,101948.94
2022-10-26T20:21:19.368Z,101946.88
2022-10-26T20:23:46.720Z,101952.22
2022-10-26T20:26:18.278Z,101950.16
2022-10-26T20:28:50.874Z,101955.50
2022-10-26T20:31:19.631Z,101966.22
2022-10-26T20:33:51.851Z,101967.84
2022-10-26T20:36:19.514Z,101972.38
2022-10-26T20:38:47.478Z,101960.84
2022-10-26T20:41:15.904Z,101968.06
2022-10-26T20:43:44.897Z,101982.25
2022-10-26T20:46:22.266Z,101969.06
2022-10-26T20:48:52.927Z,101970.72
2022-10-26T20:51:35.713Z,101972.38
2022-10-26T20:54:13.947Z,101969.91
2022-10-26T20:56:43.669Z,101983.25
2022-10-26T20:59:22.085Z,101984.50
2022-10-26T21:01:49.123Z,101988.00
2022-10-26T21:04:17.455Z,101981.63
2022-10-26T21:06:44.491Z,101984.09
2022-10-26T21:09:11.897Z,101982.66
2022-10-26T21:11:39.196Z,101993.34
2022-10-26T21:14:06.598Z,101996.22
2022-10-26T21:16:33.737Z,101999.09
2022-10-26T21:19:01.295Z,102002.19
2022-10-26T21:21:29.666Z,101995.19
2022-10-26T21:23:57.100Z,101997.84
2022-10-26T21:26:24.010Z,102008.94
2022-10-26T21:28:50.976Z,102009.38
2022-10-26T21:31:18.861Z,102003.81
2022-10-26T21:33:46.776Z,102008.56
2022-10-26T21:36:15.806Z,102006.06
2022-10-26T21:38:45.951Z,102003.59
2022-10-26T21:41:15.711Z,102018.19
2022-10-26T21:43:48.826Z,102017.56
2022-10-26T21:46:18.712Z,102020.03
2022-10-26T21:48:46.956Z,102018.19
2022-10-26T21:51:17.455Z,102019.41
2022-10-26T21:53:46.475Z,102017.97
2022-10-26T21:56:16.422Z,102015.50
2022-10-26T21:58:43.769Z,102008.50
2022-10-26T22:01:13.566Z,102013.03
2022-10-26T22:03:41.758Z,102024.31
2022-10-26T22:06:10.545Z,102023.53
2022-10-26T22:08:38.572Z,102018.38
2022-10-26T22:11:12.979Z,102017.56
2022-10-26T22:13:42.691Z,102017.34
2022-10-26T22:16:12.901Z,102019.19
2022-10-26T22:18:43.435Z,102026.38
2022-10-26T22:21:12.026Z,102028.03
2022-10-26T22:23:41.391Z,102034.81
2022-10-26T22:26:12.977Z,102031.13
2022-10-26T22:28:43.851Z,102022.09
2022-10-26T22:31:14.728Z,102027.44
2022-10-26T22:33:42.233Z,102031.31
2022-10-26T22:36:11.874Z,102031.94
2022-10-26T22:38:39.860Z,102037.69
2022-10-26T22:41:09.512Z,102038.91
2022-10-26T22:43:36.955Z,102040.13
2022-10-26T22:46:06.666Z,102043.84
2022-10-26T22:48:34.949Z,102039.91
2022-10-26T22:51:05.848Z,102044.63
2022-10-26T22:53:33.026Z,102041.34
2022-10-26T22:56:00.472Z,102053.06
2022-10-26T22:58:29.058Z,102056.53
2022-10-26T23:01:03.867Z,102049.75
2022-10-26T23:03:30.931Z,102054.91
2022-10-26T23:05:58.095Z,102050.38
2022-10-26T23:08:25.378Z,102049.34
2022-10-26T23:10:53.150Z,102046.66
2022-10-26T23:13:20.126Z,102050.56
2022-10-26T23:15:48.424Z,102048.28
2022-10-26T23:18:15.461Z,102057.53
2022-10-26T23:20:42.459Z,102064.88
2022-10-26T23:23:09.445Z,102069.59
2022-10-26T23:25:36.407Z,102076.78
2022-10-26T23:28:03.570Z,102072.47
2022-10-26T23:30:30.835Z,102071.66
2022-10-26T23:32:59.147Z,102068.78
2022-10-26T23:35:26.172Z,102075.97
2022-10-26T23:37:53.191Z,102071.66
2022-10-26T23:40:20.175Z,102070.03
2022-10-26T23:42:47.277Z,102070.03
2022-10-26T23:45:14.306Z,102069.38
2022-10-26T23:47:41.287Z,102065.91
2022-10-26T23:50:10.248Z,102066.91
2022-10-26T23:52:37.239Z,102068.56
2022-10-26T23:55:04.687Z,102070.41
2022-10-26T23:57:31.630Z,102069.78
2022-10-26T23:59:58.687Z,102071.63
